Time;durP1;ratioP1;P1;durP2;ratioP2;P2;SDS_P1;SDS_P2;PMS_P1;PMS_P2;Temp;Humidity;BMP_temperature;BMP_pressure;BME280_temperature;BME280_humidity;BME280_pressure;Samples;Min_cycle;Max_cycle;Signal;HPM_P1;HPM_P2
2022/07/05 00:00:38;;;;;;;0.40;0.40;;;12.50;99.90;;;;;;5059032;28;20228;-68
2022/07/05 00:03:03;;;;;;;0.60;0.60;;;12.50;99.90;;;;;;5054156;28;20186;-67
2022/07/05 00:05:29;;;;;;;0.50;0.50;;;12.50;99.90;;;;;;5056414;28;20184;-67
2022/07/05 00:07:55;;;;;;;0.50;0.50;;;12.50;99.90;;;;;;5073360;28;20201;-67
2022/07/05 00:10:20;;;;;;;0.60;0.60;;;12.50;99.90;;;;;;5073851;28;20197;-67
2022/07/05 00:12:46;;;;;;;0.68;0.68;;;12.50;99.90;;;;;;5073682;28;20201;-67
2022/07/05 00:15:12;;;;;;;1.15;0.85;;;12.40;99.90;;;;;;5072743;28;20283;-69
2022/07/05 00:17:38;;;;;;;0.55;0.55;;;12.40;99.90;;;;;;5072856;28;20221;-66
2022/07/05 00:20:04;;;;;;;1.42;1.15;;;12.40;99.90;;;;;;5053885;28;20197;-67
2022/07/05 00:22:30;;;;;;;0.60;0.60;;;12.40;99.90;;;;;;5053468;28;20196;-67
2022/07/05 00:24:56;;;;;;;1.88;0.93;;;12.40;99.90;;;;;;5053763;28;20600;-66
2022/07/05 00:27:22;;;;;;;0.68;0.68;;;12.40;99.90;;;;;;5053411;28;20228;-68
2022/07/05 00:29:47;;;;;;;0.60;0.60;;;12.40;99.90;;;;;;5053322;28;20648;-67
2022/07/05 00:32:13;;;;;;;0.50;0.50;;;12.40;99.90;;;;;;5053555;28;20201;-70
2022/07/05 00:34:39;;;;;;;0.50;0.50;;;12.30;99.90;;;;;;5053867;28;20208;-70
2022/07/05 00:37:04;;;;;;;6.88;1.17;;;12.30;99.90;;;;;;5035774;28;20241;-69
2022/07/05 00:39:30;;;;;;;0.60;0.60;;;12.30;99.90;;;;;;5053460;28;20193;-72
2022/07/05 00:41:57;;;;;;;0.68;0.68;;;12.20;99.90;;;;;;5053534;28;20186;-70
2022/07/05 00:44:31;;;;;;;0.52;0.52;;;12.20;99.90;;;;;;5053327;28;20188;-69
2022/07/05 00:46:57;;;;;;;0.70;0.70;;;12.20;99.90;;;;;;5053489;28;20538;-69
2022/07/05 00:49:23;;;;;;;0.88;0.70;;;12.10;99.90;;;;;;5053342;28;20259;-67
2022/07/05 00:51:49;;;;;;;0.50;0.50;;;12.10;99.90;;;;;;5052917;28;20740;-67
2022/07/05 00:54:14;;;;;;;0.70;0.70;;;12.10;99.90;;;;;;5052513;28;20679;-68
2022/07/05 00:56:40;;;;;;;0.50;0.50;;;12.10;99.90;;;;;;5052578;28;20632;-69
2022/07/05 00:59:09;;;;;;;0.50;0.50;;;12.00;99.90;;;;;;5052869;28;20189;-67
2022/07/05 01:01:34;;;;;;;0.63;0.63;;;12.00;99.90;;;;;;5053230;28;20307;-71
2022/07/05 01:04:00;;;;;;;0.68;0.68;;;12.00;99.90;;;;;;5052604;28;20680;-72
2022/07/05 01:06:26;;;;;;;0.50;0.50;;;12.00;99.90;;;;;;5041650;28;20661;-71
2022/07/05 01:08:52;;;;;;;0.50;0.50;;;12.00;99.90;;;;;;5015232;28;20194;-72
2022/07/05 01:11:18;;;;;;;0.60;0.60;;;12.00;99.90;;;;;;5033120;28;20602;-71
2022/07/05 01:13:43;;;;;;;0.50;0.50;;;12.00;99.90;;;;;;5033002;28;20229;-71
2022/07/05 01:16:09;;;;;;;0.50;0.50;;;12.00;99.90;;;;;;5050630;28;20202;-72
2022/07/05 01:18:36;;;;;;;1.42;0.60;;;12.00;99.90;;;;;;5052646;28;20274;-71
2022/07/05 01:21:02;;;;;;;0.50;0.50;;;12.00;99.90;;;;;;5051755;28;20208;-71
2022/07/05 01:23:30;;;;;;;0.50;0.50;;;11.90;99.90;;;;;;5034774;28;20563;-71
2022/07/05 01:25:58;;;;;;;0.50;0.50;;;11.90;99.90;;;;;;5052795;28;20276;-71
2022/07/05 01:28:24;;;;;;;1.02;1.02;;;11.90;99.90;;;;;;5032188;28;20201;-72
2022/07/05 01:30:50;;;;;;;0.57;0.57;;;11.80;99.90;;;;;;5034679;28;20779;-72
2022/07/05 01:33:16;;;;;;;0.80;0.80;;;11.70;99.90;;;;;;5051965;28;20291;-71
2022/07/05 01:35:42;;;;;;;0.60;0.60;;;11.70;99.90;;;;;;5052898;28;20248;-72
2022/07/05 01:38:10;;;;;;;0.47;0.47;;;11.70;99.90;;;;;;5052476;28;20205;-72
2022/07/05 01:40:36;;;;;;;0.55;0.55;;;11.70;99.90;;;;;;5052288;28;20530;-71
2022/07/05 01:43:03;;;;;;;0.50;0.50;;;11.70;99.90;;;;;;5034542;28;20196;-72
2022/07/05 01:45:44;;;;;;;0.50;0.50;;;11.70;99.90;;;;;;5052134;28;20197;-72
2022/07/05 01:48:13;;;;;;;0.60;0.60;;;11.60;99.90;;;;;;5034442;28;20201;-72
2022/07/05 01:50:56;;;;;;;0.57;0.57;;;11.60;99.90;;;;;;5034691;28;20215;-72
2022/07/05 01:53:32;;;;;;;0.60;0.60;;;11.60;99.90;;;;;;5035565;28;20569;-72
2022/07/05 01:56:03;;;;;;;0.50;0.50;;;11.60;99.90;;;;;;5032188;28;20190;-71
2022/07/05 01:58:30;;;;;;;0.93;0.85;;;11.50;99.90;;;;;;5031992;28;20217;-72
2022/07/05 02:00:57;;;;;;;1.02;0.90;;;11.40;99.90;;;;;;5031358;28;20680;-72
2022/07/05 02:03:23;;;;;;;0.75;0.75;;;11.40;99.90;;;;;;5032113;28;20194;-71
2022/07/05 02:05:49;;;;;;;0.50;0.50;;;11.40;99.90;;;;;;5037583;28;20193;-72
2022/07/05 02:08:17;;;;;;;3.25;1.02;;;11.30;99.90;;;;;;5034138;28;20205;-72
2022/07/05 02:10:43;;;;;;;0.50;0.50;;;11.30;99.90;;;;;;5047754;28;20199;-71
2022/07/05 02:13:10;;;;;;;1.05;0.98;;;11.30;99.90;;;;;;5031896;28;20249;-71
2022/07/05 02:15:39;;;;;;;0.60;0.60;;;11.20;99.90;;;;;;5031890;28;20723;-71
2022/07/05 02:18:07;;;;;;;0.50;0.50;;;11.20;99.90;;;;;;5019324;28;20225;-72
2022/07/05 02:20:33;;;;;;;0.50;0.50;;;11.20;99.90;;;;;;5051826;28;20239;-72
2022/07/05 02:22:59;;;;;;;0.50;0.50;;;11.10;99.90;;;;;;5051880;28;20276;-72
2022/07/05 02:25:25;;;;;;;0.50;0.50;;;11.00;99.90;;;;;;5061453;28;20296;-71
2022/07/05 02:27:52;;;;;;;0.60;0.60;;;11.10;99.90;;;;;;5071893;28;20193;-71
2022/07/05 02:30:18;;;;;;;0.68;0.68;;;11.10;99.90;;;;;;5071163;28;20193;-72
2022/07/05 02:32:44;;;;;;;0.50;0.50;;;11.00;99.90;;;;;;5078241;28;20651;-72
2022/07/05 02:35:11;;;;;;;0.70;0.70;;;11.00;99.90;;;;;;5077150;28;20196;-71
2022/07/05 02:37:37;;;;;;;0.68;0.68;;;11.00;99.90;;;;;;5078134;28;20603;-72
2022/07/05 02:40:04;;;;;;;0.50;0.50;;;11.00;99.90;;;;;;5078349;28;20246;-72
2022/07/05 02:42:30;;;;;;;0.40;0.40;;;11.10;99.90;;;;;;5078209;28;20191;-71
2022/07/05 02:44:56;;;;;;;2.40;1.00;;;11.10;99.90;;;;;;5078334;28;20189;-71
2022/07/05 02:47:21;;;;;;;0.55;0.55;;;11.20;99.90;;;;;;5078199;28;20253;-71
2022/07/05 02:49:47;;;;;;;0.55;0.55;;;11.30;99.90;;;;;;5078312;28;20235;-71
2022/07/05 02:52:13;;;;;;;0.50;0.50;;;11.30;99.90;;;;;;5078265;28;20200;-72
2022/07/05 02:54:39;;;;;;;0.50;0.50;;;11.30;99.90;;;;;;5078049;28;20198;-71
2022/07/05 02:57:05;;;;;;;0.80;0.80;;;11.40;99.90;;;;;;5078513;28;20200;-71
2022/07/05 02:59:31;;;;;;;0.73;0.73;;;11.40;99.90;;;;;;5078116;28;20188;-71
2022/07/05 03:01:57;;;;;;;0.50;0.50;;;11.50;99.90;;;;;;5073921;28;20190;-72
2022/07/05 03:04:22;;;;;;;0.50;0.50;;;11.60;99.90;;;;;;5057807;28;20737;-71
2022/07/05 03:06:48;;;;;;;1.00;0.85;;;11.60;99.90;;;;;;5071913;28;20250;-72
2022/07/05 03:09:14;;;;;;;0.57;0.57;;;11.70;99.90;;;;;;5077991;28;20193;-72
2022/07/05 03:11:39;;;;;;;0.57;0.57;;;11.80;99.90;;;;;;5077585;28;20250;-72
2022/07/05 03:14:05;;;;;;;0.50;0.50;;;11.80;99.90;;;;;;5078112;28;20193;-72
2022/07/05 03:16:31;;;;;;;0.57;0.57;;;11.80;99.90;;;;;;5077866;28;20284;-71
2022/07/05 03:18:57;;;;;;;0.50;0.50;;;11.90;99.90;;;;;;5068402;28;20236;-72
2022/07/05 03:21:23;;;;;;;0.50;0.50;;;11.90;99.90;;;;;;5038994;28;20267;-72
2022/07/05 03:23:49;;;;;;;0.50;0.50;;;12.00;99.90;;;;;;5039826;28;20244;-72
2022/07/05 03:26:14;;;;;;;0.57;0.57;;;12.00;99.90;;;;;;5057827;28;20531;-72
2022/07/05 03:28:40;;;;;;;0.60;0.60;;;12.10;99.90;;;;;;5057833;28;20761;-72
2022/07/05 03:31:06;;;;;;;0.60;0.60;;;12.10;99.90;;;;;;5057822;28;20224;-72
2022/07/05 03:33:32;;;;;;;0.50;0.50;;;12.10;99.90;;;;;;5057457;28;20198;-71
2022/07/05 03:35:58;;;;;;;0.50;0.50;;;12.20;99.90;;;;;;5057967;28;20193;-71
2022/07/05 03:38:23;;;;;;;0.43;0.43;;;12.30;99.90;;;;;;5057359;28;20278;-72
2022/07/05 03:40:49;;;;;;;1.65;1.02;;;12.30;99.90;;;;;;5057552;28;20189;-72
2022/07/05 03:43:15;;;;;;;0.70;0.70;;;12.40;99.90;;;;;;5054674;28;20221;-72
2022/07/05 03:45:41;;;;;;;0.70;0.70;;;12.40;99.90;;;;;;5054262;28;20191;-72
2022/07/05 03:48:06;;;;;;;0.50;0.50;;;12.50;99.90;;;;;;5054452;28;20703;-72
2022/07/05 03:50:32;;;;;;;0.50;0.50;;;12.50;99.90;;;;;;5054131;28;20251;-71
2022/07/05 03:52:58;;;;;;;0.50;0.50;;;12.60;99.90;;;;;;5054245;28;20210;-71
2022/07/05 03:55:23;;;;;;;2.28;0.75;;;12.60;99.90;;;;;;5054298;28;20735;-71
2022/07/05 03:57:49;;;;;;;0.50;0.50;;;12.60;99.90;;;;;;5054209;28;20266;-71
2022/07/05 04:00:15;;;;;;;0.50;0.50;;;12.70;99.90;;;;;;5054520;28;20683;-71
2022/07/05 04:02:41;;;;;;;0.75;0.75;;;12.70;99.90;;;;;;5054093;28;20202;-72
2022/07/05 04:05:07;;;;;;;0.50;0.50;;;12.80;99.90;;;;;;5054277;28;20193;-71
2022/07/05 04:07:33;;;;;;;0.50;0.50;;;12.90;99.90;;;;;;5033992;28;20208;-73
2022/07/05 04:10:00;;;;;;;0.50;0.50;;;12.90;99.90;;;;;;5016586;28;20205;-73
2022/07/05 04:12:26;;;;;;;0.60;0.60;;;13.00;99.90;;;;;;5033982;28;20199;-73
2022/07/05 04:14:51;;;;;;;4.15;1.20;;;13.10;99.90;;;;;;5034157;28;20202;-70
2022/07/05 04:17:17;;;;;;;0.50;0.50;;;13.10;99.90;;;;;;5038511;28;20343;-70
2022/07/05 04:19:43;;;;;;;0.60;0.60;;;13.10;99.90;;;;;;5053826;28;20223;-71
2022/07/05 04:22:09;;;;;;;0.50;0.50;;;13.10;99.90;;;;;;5036138;28;20246;-70
2022/07/05 04:25:16;;;;;;;0.50;0.50;;;13.20;99.90;;;;;;5053600;28;20247;-71
2022/07/05 04:27:20;;;;;;;2.67;1.25;;;13.20;99.90;;;;;;5053543;28;20250;-71
2022/07/05 04:29:46;;;;;;;0.93;0.88;;;13.30;99.90;;;;;;5053980;28;20273;-72
2022/07/05 04:32:12;;;;;;;0.57;0.57;;;13.30;99.90;;;;;;5053661;28;20225;-71
2022/07/05 04:34:40;;;;;;;0.43;0.43;;;13.40;99.90;;;;;;5053180;28;20221;-72
2022/07/05 04:37:06;;;;;;;0.40;0.40;;;13.50;99.90;;;;;;5053820;28;20284;-73
2022/07/05 04:39:31;;;;;;;0.40;0.40;;;13.60;99.90;;;;;;5053583;28;20760;-72
2022/07/05 04:41:57;;;;;;;1.38;0.85;;;13.70;99.90;;;;;;5053600;28;20533;-72
2022/07/05 04:44:23;;;;;;;0.65;0.57;;;13.80;99.90;;;;;;5053257;28;20216;-72
2022/07/05 04:46:48;;;;;;;0.47;0.47;;;13.90;99.90;;;;;;5053567;28;20288;-72
2022/07/05 04:49:14;;;;;;;0.35;0.35;;;13.90;99.90;;;;;;5053545;28;20205;-72
2022/07/05 04:51:40;;;;;;;0.63;0.63;;;14.00;99.90;;;;;;5053107;28;20281;-72
2022/07/05 04:54:05;;;;;;;0.60;0.60;;;14.00;99.90;;;;;;5035460;28;20193;-72
2022/07/05 04:56:31;;;;;;;0.50;0.50;;;14.10;99.90;;;;;;5053040;28;20209;-72
2022/07/05 04:58:56;;;;;;;0.82;0.75;;;14.20;99.90;;;;;;5053663;28;20256;-72
2022/07/05 05:01:22;;;;;;;0.50;0.50;;;14.20;99.90;;;;;;5052971;28;20216;-72
2022/07/05 05:03:48;;;;;;;0.40;0.40;;;14.30;99.90;;;;;;5052980;28;20197;-73
2022/07/05 05:06:14;;;;;;;0.40;0.40;;;14.30;99.90;;;;;;5052760;28;20557;-72
2022/07/05 05:08:41;;;;;;;0.43;0.43;;;14.30;99.90;;;;;;5052841;28;20280;-72
2022/07/05 05:11:07;;;;;;;1.25;1.15;;;14.30;99.90;;;;;;5052829;28;20247;-73
2022/07/05 05:13:33;;;;;;;0.40;0.40;;;14.50;99.90;;;;;;5049831;28;20696;-73
2022/07/05 05:15:59;;;;;;;1.85;0.60;;;14.60;99.90;;;;;;5052938;28;20194;-73
2022/07/05 05:18:26;;;;;;;0.30;0.30;;;14.70;99.90;;;;;;5052499;28;20225;-73
2022/07/05 05:20:54;;;;;;;0.60;0.60;;;14.70;99.90;;;;;;5052957;28;20193;-73
2022/07/05 05:23:23;;;;;;;0.40;0.40;;;14.90;99.90;;;;;;5052583;28;20189;-72
2022/07/05 05:25:50;;;;;;;0.50;0.50;;;14.90;99.90;;;;;;5035073;28;20577;-73
2022/07/05 05:28:15;;;;;;;0.30;0.30;;;14.90;99.90;;;;;;5034730;28;20208;-73
2022/07/05 05:30:41;;;;;;;0.55;0.55;;;15.00;99.90;;;;;;5034553;28;20201;-74
2022/07/05 05:33:06;;;;;;;1.05;0.75;;;15.20;99.90;;;;;;5039451;28;20284;-73
2022/07/05 05:35:32;;;;;;;0.52;0.52;;;15.20;99.90;;;;;;5014756;28;20352;-73
2022/07/05 05:37:58;;;;;;;0.40;0.40;;;15.30;99.90;;;;;;5032538;28;20285;-73
2022/07/05 05:40:25;;;;;;;0.30;0.30;;;15.40;99.90;;;;;;5032246;28;20273;-74
2022/07/05 05:42:52;;;;;;;1.13;0.77;;;15.50;99.90;;;;;;5032421;28;20248;-74
2022/07/05 05:45:18;;;;;;;0.30;0.30;;;15.60;99.90;;;;;;5014621;28;20201;-74
2022/07/05 05:47:53;;;;;;;0.38;0.38;;;15.70;99.90;;;;;;5032386;28;20284;-74
2022/07/05 05:50:24;;;;;;;0.68;0.68;;;15.90;99.90;;;;;;5031543;28;20263;-73
2022/07/05 05:52:51;;;;;;;1.27;0.68;;;16.00;99.90;;;;;;5031977;28;20206;-73
2022/07/05 05:55:17;;;;;;;0.40;0.40;;;16.10;99.90;;;;;;5031679;28;20225;-73
2022/07/05 05:57:43;;;;;;;0.30;0.30;;;16.10;99.90;;;;;;5013817;28;20602;-73
2022/07/05 06:00:10;;;;;;;0.50;0.50;;;16.10;99.90;;;;;;5031932;28;20218;-74
2022/07/05 06:02:36;;;;;;;0.30;0.30;;;16.30;99.90;;;;;;5031575;28;20244;-74
2022/07/05 06:05:02;;;;;;;3.03;1.02;;;16.50;99.90;;;;;;5031638;28;20194;-72
2022/07/05 06:07:28;;;;;;;0.30;0.30;;;16.60;99.90;;;;;;5049965;28;20284;-72
2022/07/05 06:09:53;;;;;;;0.40;0.40;;;16.70;99.90;;;;;;5030901;28;20259;-74
2022/07/05 06:12:19;;;;;;;0.30;0.30;;;16.60;99.90;;;;;;5053174;28;20200;-82
2022/07/05 06:14:45;;;;;;;0.30;0.30;;;16.90;99.90;;;;;;5056431;28;20197;-81
2022/07/05 06:17:11;;;;;;;0.50;0.50;;;17.00;99.90;;;;;;5037252;28;20288;-81
2022/07/05 06:19:36;;;;;;;0.30;0.30;;;17.60;99.90;;;;;;5061588;28;20236;-81
2022/07/05 06:22:02;;;;;;;0.80;0.40;;;18.10;99.90;;;;;;5073744;28;20728;-80
2022/07/05 06:24:28;;;;;;;0.25;0.25;;;18.40;99.90;;;;;;5071054;28;20318;-78
2022/07/05 06:26:53;;;;;;;0.25;0.25;;;18.60;99.90;;;;;;5072215;28;20193;-79
2022/07/05 06:29:19;;;;;;;0.85;0.50;;;18.50;99.90;;;;;;5072018;28;20664;-79
2022/07/05 06:31:45;;;;;;;0.30;0.30;;;18.40;99.90;;;;;;5071304;28;20197;-79
2022/07/05 06:34:10;;;;;;;0.30;0.30;;;18.50;99.90;;;;;;5072266;28;20243;-79
2022/07/05 06:36:36;;;;;;;0.20;0.20;;;18.40;99.90;;;;;;5071228;28;20246;-77
2022/07/05 06:39:02;;;;;;;0.30;0.30;;;18.50;99.90;;;;;;5070851;28;20200;-81
2022/07/05 06:41:28;;;;;;;0.30;0.30;;;18.50;99.90;;;;;;5072173;28;20185;-80
2022/07/05 06:43:53;;;;;;;1.30;0.82;;;19.10;99.90;;;;;;5071055;28;20546;-79
2022/07/05 06:46:19;;;;;;;0.20;0.20;;;19.60;99.90;;;;;;5072029;28;20299;-80
2022/07/05 06:48:45;;;;;;;0.95;0.63;;;19.40;99.90;;;;;;5062044;28;20194;-78
2022/07/05 06:51:10;;;;;;;0.22;0.22;;;19.20;99.90;;;;;;5051885;28;20205;-77
2022/07/05 06:53:36;;;;;;;0.20;0.20;;;19.30;99.90;;;;;;5051927;28;20193;-77
2022/07/05 06:56:02;;;;;;;0.30;0.30;;;19.80;99.90;;;;;;5051854;28;20201;-78
2022/07/05 06:58:27;;;;;;;0.20;0.20;;;20.70;99.90;;;;;;5051279;28;20214;-78
2022/07/05 07:00:53;;;;;;;0.20;0.20;;;20.90;99.90;;;;;;5051666;28;20568;-78
2022/07/05 07:03:19;;;;;;;0.30;0.30;;;20.60;99.90;;;;;;5051901;28;20213;-80
2022/07/05 07:05:44;;;;;;;0.20;0.20;;;20.50;99.90;;;;;;5056558;28;20244;-78
2022/07/05 07:10:54;;;;;;;0.20;0.20;;;20.40;99.90;;;;;;5071768;28;20665;-78
2022/07/05 07:13:20;;;;;;;0.60;0.60;;;19.70;99.90;;;;;;5070655;28;20224;-78
2022/07/05 07:15:47;;;;;;;0.40;0.40;;;20.00;99.90;;;;;;5070663;28;20200;-77
2022/07/05 07:18:14;;;;;;;0.30;0.30;;;20.50;99.90;;;;;;5068666;28;20218;-78
2022/07/05 07:20:40;;;;;;;0.47;0.30;;;20.70;99.90;;;;;;5054804;28;20194;-78
2022/07/05 07:23:05;;;;;;;0.20;0.20;;;20.70;99.90;;;;;;5037634;28;20193;-78
2022/07/05 07:25:31;;;;;;;0.20;0.20;;;20.30;99.90;;;;;;5037365;28;20328;-78
2022/07/05 07:27:57;;;;;;;0.20;0.20;;;20.30;99.90;;;;;;5055398;28;20190;-76
2022/07/05 07:30:27;;;;;;;0.32;0.32;;;20.10;99.90;;;;;;5055089;28;20207;-77
2022/07/05 07:32:54;;;;;;;0.20;0.20;;;20.00;99.90;;;;;;5055164;28;20225;-78
2022/07/05 07:35:20;;;;;;;0.40;0.32;;;20.20;99.90;;;;;;5037112;28;20284;-77
2022/07/05 07:37:46;;;;;;;0.20;0.20;;;20.30;99.90;;;;;;5037287;28;20235;-78
2022/07/05 07:40:12;;;;;;;1.48;0.57;;;20.10;99.90;;;;;;5055008;28;20708;-78
2022/07/05 07:42:38;;;;;;;0.30;0.30;;;20.10;99.90;;;;;;5054794;28;20668;-76
2022/07/05 07:45:05;;;;;;;0.40;0.40;;;20.10;99.90;;;;;;5036979;28;20247;-78
2022/07/05 07:47:31;;;;;;;0.20;0.20;;;20.30;99.90;;;;;;5055195;28;20190;-79
2022/07/05 07:49:57;;;;;;;0.20;0.20;;;20.00;99.90;;;;;;5055116;28;20202;-78
2022/07/05 07:52:22;;;;;;;0.28;0.28;;;20.10;99.90;;;;;;5054822;28;20829;-78
2022/07/05 07:54:48;;;;;;;0.30;0.30;;;19.90;99.90;;;;;;5054881;28;20198;-78
2022/07/05 07:57:14;;;;;;;0.20;0.20;;;19.70;99.90;;;;;;5036638;28;20232;-78
2022/07/05 07:59:40;;;;;;;0.20;0.20;;;19.50;99.90;;;;;;5054082;28;20185;-78
2022/07/05 08:02:06;;;;;;;0.30;0.30;;;19.70;99.90;;;;;;5031496;28;20217;-78
2022/07/05 08:04:32;;;;;;;0.30;0.30;;;19.90;99.90;;;;;;5034654;28;20255;-78
2022/07/05 08:06:58;;;;;;;0.20;0.20;;;20.20;99.90;;;;;;5049686;28;20248;-78
2022/07/05 08:09:24;;;;;;;0.25;0.25;;;20.60;99.90;;;;;;5054442;28;20185;-77
2022/07/05 08:11:50;;;;;;;0.20;0.20;;;20.70;99.90;;;;;;5036605;28;20678;-79
2022/07/05 08:14:17;;;;;;;1.20;0.63;;;20.50;99.90;;;;;;5054394;28;20197;-78
2022/07/05 08:16:43;;;;;;;0.40;0.40;;;20.30;99.90;;;;;;5054339;28;20630;-78
2022/07/05 08:21:54;;;;;;;0.30;0.30;;;20.50;99.90;;;;;;5074443;28;20631;-78
2022/07/05 08:24:20;;;;;;;0.28;0.28;;;20.60;99.90;;;;;;5074114;28;20189;-78
2022/07/05 08:26:46;;;;;;;0.52;0.52;;;20.50;99.90;;;;;;5074163;28;20197;-78
2022/07/05 08:29:13;;;;;;;0.32;0.32;;;20.50;99.90;;;;;;5072299;28;20292;-78
2022/07/05 08:31:42;;;;;;;0.35;0.35;;;20.20;99.90;;;;;;5072920;28;20200;-78
2022/07/05 08:34:08;;;;;;;0.20;0.20;;;20.40;99.90;;;;;;5073060;28;20667;-79
2022/07/05 08:36:34;;;;;;;11.80;0.90;;;20.70;99.90;;;;;;5073914;28;20268;-79
2022/07/05 08:38:59;;;;;;;0.63;0.63;;;20.90;99.90;;;;;;5072780;28;20204;-77
2022/07/05 08:41:26;;;;;;;4.38;0.52;;;21.20;99.90;;;;;;5061282;28;20200;-77
2022/07/05 08:43:52;;;;;;;0.30;0.30;;;21.10;99.90;;;;;;5053675;28;20194;-77
2022/07/05 08:46:19;;;;;;;0.38;0.30;;;21.00;99.90;;;;;;5052521;28;20202;-78
2022/07/05 08:48:48;;;;;;;0.20;0.20;;;21.30;99.90;;;;;;5052823;28;20197;-76
2022/07/05 08:51:22;;;;;;;0.52;0.40;;;21.10;99.90;;;;;;5053859;28;20197;-76
2022/07/05 08:53:49;;;;;;;0.20;0.20;;;20.50;99.90;;;;;;5052683;28;20190;-77
2022/07/05 08:56:15;;;;;;;0.20;0.20;;;20.30;99.90;;;;;;5052396;28;20220;-78
2022/07/05 08:58:41;;;;;;;0.20;0.20;;;20.10;99.90;;;;;;5057345;28;20197;-77
2022/07/05 09:01:09;;;;;;;0.20;0.20;;;20.10;99.90;;;;;;5072399;28;20223;-75
2022/07/05 09:03:39;;;;;;;0.20;0.20;;;20.50;99.90;;;;;;5073653;28;20196;-76
2022/07/05 09:06:08;;;;;;;0.20;0.20;;;20.40;99.90;;;;;;5073538;28;20711;-76
2022/07/05 09:08:39;;;;;;;0.20;0.20;;;20.60;99.90;;;;;;5072057;28;20201;-76
2022/07/05 09:11:13;;;;;;;0.30;0.30;;;20.50;99.90;;;;;;5073727;28;20667;-76
2022/07/05 09:13:43;;;;;;;0.30;0.30;;;20.90;99.90;;;;;;5073534;28;20222;-75
2022/07/05 09:16:09;;;;;;;0.20;0.20;;;21.80;99.90;;;;;;5074153;28;20569;-76
2022/07/05 09:18:54;;;;;;;0.20;0.20;;;22.00;99.90;;;;;;5072009;28;20224;-76
2022/07/05 09:21:27;;;;;;;0.20;0.20;;;22.10;99.90;;;;;;5073059;28;20200;-76
2022/07/05 09:24:08;;;;;;;1.95;0.52;;;22.20;99.90;;;;;;5073819;28;20701;-75
2022/07/05 09:26:44;;;;;;;0.20;0.20;;;22.20;99.90;;;;;;5072692;28;20283;-74
2022/07/05 09:29:15;;;;;;;0.20;0.20;;;21.80;99.90;;;;;;5072910;28;20220;-74
2022/07/05 09:31:43;;;;;;;1.88;0.75;;;21.20;99.90;;;;;;5071457;28;20600;-75
2022/07/05 09:34:19;;;;;;;0.30;0.30;;;20.90;99.90;;;;;;5073004;28;20546;-74
2022/07/05 09:36:59;;;;;;;0.85;0.73;;;20.00;99.90;;;;;;5068043;28;20193;-74
2022/07/05 09:39:33;;;;;;;2.65;1.00;;;19.70;99.90;;;;;;5052304;28;20185;-74
2022/07/05 09:42:18;;;;;;;1.15;0.45;;;19.60;99.90;;;;;;5051663;28;20192;-74
2022/07/05 09:44:44;;;;;;;0.20;0.20;;;20.20;99.90;;;;;;5052436;28;20182;-76
2022/07/05 09:47:12;;;;;;;0.28;0.28;;;20.70;99.90;;;;;;5052431;28;20239;-76
2022/07/05 09:49:43;;;;;;;0.32;0.32;;;20.50;99.90;;;;;;5052047;28;20276;-75
2022/07/05 09:52:10;;;;;;;0.20;0.20;;;20.70;99.90;;;;;;5052392;28;20670;-74
2022/07/05 09:54:35;;;;;;;0.20;0.20;;;21.40;99.90;;;;;;5057112;28;20188;-75
2022/07/05 09:57:01;;;;;;;0.20;0.20;;;21.30;99.90;;;;;;5066217;28;20208;-74
2022/07/05 09:59:27;;;;;;;0.30;0.30;;;21.20;99.90;;;;;;5072166;28;20192;-72
2022/07/05 10:01:53;;;;;;;0.20;0.20;;;21.40;99.90;;;;;;5070905;28;20192;-76
2022/07/05 10:04:18;;;;;;;0.35;0.35;;;22.30;99.90;;;;;;5070831;28;20197;-73
2022/07/05 10:06:45;;;;;;;0.43;0.30;;;22.70;99.90;;;;;;5071943;28;20656;-74
2022/07/05 10:09:11;;;;;;;0.20;0.20;;;22.50;99.90;;;;;;5072403;28;20268;-72
2022/07/05 10:11:42;;;;;;;0.17;0.17;;;22.50;99.90;;;;;;5071935;28;20196;-73
2022/07/05 10:14:27;;;;;;;0.20;0.20;;;22.40;99.90;;;;;;5072159;28;20181;-73
2022/07/05 10:16:59;;;;;;;0.22;0.22;;;23.30;99.90;;;;;;5072007;28;20200;-74
2022/07/05 10:19:32;;;;;;;0.20;0.20;;;23.20;99.90;;;;;;5070911;28;20228;-73
2022/07/05 10:21:59;;;;;;;0.20;0.20;;;23.70;99.90;;;;;;5072459;28;20543;-73
2022/07/05 10:24:25;;;;;;;0.30;0.30;;;23.80;99.90;;;;;;5072361;28;20686;-73
2022/07/05 10:26:52;;;;;;;0.17;0.17;;;23.80;99.90;;;;;;5071351;28;20197;-73
2022/07/05 10:29:18;;;;;;;2.08;0.68;;;23.20;99.90;;;;;;5072061;28;20282;-74
2022/07/05 10:31:45;;;;;;;0.13;0.13;;;22.70;99.90;;;;;;5071280;28;20633;-72
2022/07/05 10:34:11;;;;;;;0.25;0.25;;;22.00;99.90;;;;;;5072055;28;20280;-74
2022/07/05 10:36:39;;;;;;;0.55;0.55;;;21.30;99.90;;;;;;5070585;28;20204;-73
2022/07/05 10:39:06;;;;;;;0.20;0.20;;;21.90;99.90;;;;;;5070712;28;20569;-73
2022/07/05 10:41:32;;;;;;;0.10;0.10;;;22.90;99.90;;;;;;5071575;28;20267;-74
2022/07/05 10:43:58;;;;;;;0.20;0.20;;;23.70;99.90;;;;;;5072757;28;20189;-73
2022/07/05 10:46:35;;;;;;;0.30;0.30;;;24.10;99.90;;;;;;5071318;28;20562;-74
2022/07/05 10:49:13;;;;;;;0.32;0.32;;;24.90;99.90;;;;;;5071960;28;20192;-74
2022/07/05 10:51:39;;;;;;;0.20;0.20;;;25.30;99.90;;;;;;5064563;28;20753;-74
2022/07/05 10:54:05;;;;;;;0.10;0.10;;;24.50;99.90;;;;;;5054413;28;20232;-74
2022/07/05 10:56:31;;;;;;;0.90;0.50;;;23.80;99.90;;;;;;5055780;28;20197;-73
2022/07/05 10:59:09;;;;;;;0.20;0.20;;;23.20;99.90;;;;;;5056191;28;20692;-74
2022/07/05 11:01:36;;;;;;;0.10;0.10;;;22.80;99.90;;;;;;5055495;28;20194;-72
2022/07/05 11:04:02;;;;;;;0.10;0.10;;;23.30;99.90;;;;;;5074143;28;20197;-71
2022/07/05 11:06:27;;;;;;;0.10;0.10;;;23.10;99.90;;;;;;5075281;28;20184;-70
2022/07/05 11:08:59;;;;;;;3.38;0.40;;;23.20;99.90;;;;;;5075149;28;20200;-71
2022/07/05 11:11:30;;;;;;;0.22;0.22;;;23.10;99.90;;;;;;5074821;28;20864;-71
2022/07/05 11:14:00;;;;;;;0.20;0.20;;;23.80;99.90;;;;;;5075163;28;20193;-71
2022/07/05 11:16:36;;;;;;;0.15;0.15;;;24.30;99.90;;;;;;5073654;28;20252;-71
2022/07/05 11:19:18;;;;;;;0.10;0.10;;;24.90;99.80;;;;;;5064948;28;20225;-72
2022/07/05 11:22:07;;;;;;;0.55;0.25;;;25.80;98.90;;;;;;5037244;28;20619;-71
2022/07/05 11:24:34;;;;;;;0.10;0.10;;;25.60;96.10;;;;;;5055133;28;20678;-70
2022/07/05 11:27:02;;;;;;;0.20;0.20;;;25.00;99.90;;;;;;5055335;28;20200;-70
2022/07/05 11:29:41;;;;;;;0.10;0.10;;;25.80;99.90;;;;;;5036480;28;20837;-71
2022/07/05 11:32:13;;;;;;;0.10;0.10;;;26.10;99.30;;;;;;5037217;28;20189;-72
2022/07/05 11:34:39;;;;;;;0.17;0.17;;;26.30;95.20;;;;;;5037257;28;20201;-73
2022/07/05 11:37:14;;;;;;;0.17;0.17;;;25.90;93.70;;;;;;5037159;28;20347;-73
2022/07/05 11:39:44;;;;;;;0.30;0.30;;;25.00;96.20;;;;;;5054795;28;20189;-73
2022/07/05 11:42:10;;;;;;;0.10;0.10;;;24.30;99.10;;;;;;5055027;28;20189;-73
2022/07/05 11:44:40;;;;;;;0.10;0.10;;;23.80;97.10;;;;;;5054851;28;20193;-74
2022/07/05 11:47:06;;;;;;;0.10;0.10;;;23.20;99.90;;;;;;5032156;28;20235;-73
2022/07/05 11:49:32;;;;;;;1.25;0.28;;;22.80;99.90;;;;;;5017122;28;20256;-73
2022/07/05 11:52:02;;;;;;;0.10;0.10;;;22.50;99.00;;;;;;5034981;28;20225;-73
2022/07/05 11:54:30;;;;;;;0.30;0.30;;;23.00;99.60;;;;;;5034561;28;20684;-73
2022/07/05 11:56:56;;;;;;;0.10;0.10;;;23.10;98.20;;;;;;5034524;28;20221;-74
2022/07/05 11:59:23;;;;;;;0.32;0.32;;;22.60;99.90;;;;;;5016545;28;20191;-74
2022/07/05 12:01:50;;;;;;;0.20;0.20;;;22.40;99.90;;;;;;5016741;28;20284;-73
2022/07/05 12:04:27;;;;;;;0.20;0.20;;;22.10;99.20;;;;;;5015840;28;20348;-73
2022/07/05 12:06:55;;;;;;;0.20;0.20;;;22.80;99.90;;;;;;5027438;28;20198;-73
2022/07/05 12:12:42;;;;;;;0.35;0.35;;;23.50;99.70;;;;;;5016662;28;20395;-73
2022/07/05 12:15:02;;;;;;;0.10;0.10;;;25.40;97.80;;;;;;5034582;28;20205;-73
2022/07/05 12:17:28;;;;;;;0.20;0.20;;;25.30;94.10;;;;;;5034018;28;20713;-73
2022/07/05 12:19:57;;;;;;;0.10;0.10;;;24.40;96.70;;;;;;5046688;28;20240;-73
2022/07/05 12:22:42;;;;;;;0.10;0.10;;;24.30;98.00;;;;;;5053765;28;20269;-73
2022/07/05 12:25:11;;;;;;;0.15;0.15;;;24.80;96.80;;;;;;5052767;28;20201;-73
2022/07/05 12:27:40;;;;;;;0.10;0.10;;;25.50;97.40;;;;;;5053661;28;20212;-73
2022/07/05 12:30:08;;;;;;;0.15;0.15;;;26.40;95.40;;;;;;5054521;28;20185;-75
2022/07/05 12:32:52;;;;;;;0.10;0.10;;;26.80;96.10;;;;;;5054697;28;20185;-74
2022/07/05 12:35:38;;;;;;;0.10;0.10;;;27.40;93.90;;;;;;5054221;28;20210;-74
2022/07/05 12:38:04;;;;;;;0.20;0.20;;;27.20;92.60;;;;;;5053340;28;20208;-74
2022/07/05 12:40:30;;;;;;;0.10;0.10;;;26.80;91.40;;;;;;5052756;28;20649;-73
2022/07/05 12:43:10;;;;;;;0.47;0.38;;;26.70;92.00;;;;;;5057735;28;20189;-74
2022/07/05 12:45:37;;;;;;;0.10;0.10;;;26.30;91.40;;;;;;5053452;28;20191;-73
2022/07/05 12:48:05;;;;;;;0.35;0.15;;;26.80;93.30;;;;;;5053447;28;20428;-74
2022/07/05 12:50:48;;;;;;;0.10;0.10;;;27.00;90.40;;;;;;5053729;28;20193;-74
2022/07/05 12:58:54;;;;;;;0.15;0.15;;;27.20;88.60;;;;;;5072893;28;20689;-73
2022/07/05 13:01:28;;;;;;;0.10;0.10;;;26.80;87.80;;;;;;5073172;28;20185;-73
2022/07/05 13:04:10;;;;;;;0.10;0.10;;;25.90;89.10;;;;;;5073243;28;20188;-73